sensor_id;sensor_type;location;lat;lon;timestamp;temperature;humidity
26336;DHT22;14047;50.936;4.654;2022-10-13T00:00:46;14.60;99.90
26336;DHT22;14047;50.936;4.654;2022-10-13T00:03:11;14.50;99.90
26336;DHT22;14047;50.936;4.654;2022-10-13T00:05:42;14.50;99.90
26336;DHT22;14047;50.936;4.654;2022-10-13T00:08:09;14.50;99.90
26336;DHT22;14047;50.936;4.654;2022-10-13T00:10:36;14.60;99.90
26336;DHT22;14047;50.936;4.654;2022-10-13T00:13:03;14.60;99.90
26336;DHT22;14047;50.936;4.654;2022-10-13T00:15:29;14.50;99.90
26336;DHT22;14047;50.936;4.654;2022-10-13T00:17:55;14.40;99.90
26336;DHT22;14047;50.936;4.654;2022-10-13T00:20:21;14.40;99.90
26336;DHT22;14047;50.936;4.654;2022-10-13T00:22:46;14.40;99.90
26336;DHT22;14047;50.936;4.654;2022-10-13T00:25:12;14.30;99.90
26336;DHT22;14047;50.936;4.654;2022-10-13T00:27:38;14.40;99.90
26336;DHT22;14047;50.936;4.654;2022-10-13T00:30:04;14.40;99.90
26336;DHT22;14047;50.936;4.654;2022-10-13T00:32:29;14.40;99.90
26336;DHT22;14047;50.936;4.654;2022-10-13T00:34:55;14.30;99.90
26336;DHT22;14047;50.936;4.654;2022-10-13T00:37:22;14.20;99.90
26336;DHT22;14047;50.936;4.654;2022-10-13T00:39:48;14.30;99.90
26336;DHT22;14047;50.936;4.654;2022-10-13T00:42:14;14.40;99.90
26336;DHT22;14047;50.936;4.654;2022-10-13T00:45:03;14.40;99.90
26336;DHT22;14047;50.936;4.654;2022-10-13T00:47:39;14.40;99.90
26336;DHT22;14047;50.936;4.654;2022-10-13T00:50:09;14.50;99.90
26336;DHT22;14047;50.936;4.654;2022-10-13T00:52:36;14.50;99.90
26336;DHT22;14047;50.936;4.654;2022-10-13T00:55:05;14.40;99.90
26336;DHT22;14047;50.936;4.654;2022-10-13T00:57:32;14.50;99.90
26336;DHT22;14047;50.936;4.654;2022-10-13T00:59:59;14.50;99.90
26336;DHT22;14047;50.936;4.654;2022-10-13T01:02:29;14.70;99.90
26336;DHT22;14047;50.936;4.654;2022-10-13T01:04:57;14.60;99.90
26336;DHT22;14047;50.936;4.654;2022-10-13T01:07:23;14.60;99.90
26336;DHT22;14047;50.936;4.654;2022-10-13T01:09:49;14.70;99.90
26336;DHT22;14047;50.936;4.654;2022-10-13T01:17:53;14.80;99.90
26336;DHT22;14047;50.936;4.654;2022-10-13T01:20:31;14.70;99.90
26336;DHT22;14047;50.936;4.654;2022-10-13T01:29:10;14.80;99.90
26336;DHT22;14047;50.936;4.654;2022-10-13T01:34:50;14.80;99.90
26336;DHT22;14047;50.936;4.654;2022-10-13T01:37:30;14.80;99.90
26336;DHT22;14047;50.936;4.654;2022-10-13T01:40:15;14.80;99.90
26336;DHT22;14047;50.936;4.654;2022-10-13T01:48:44;14.80;99.90
26336;DHT22;14047;50.936;4.654;2022-10-13T01:51:13;14.80;99.90
26336;DHT22;14047;50.936;4.654;2022-10-13T01:53:41;14.80;99.90
26336;DHT22;14047;50.936;4.654;2022-10-13T01:56:07;14.90;99.90
26336;DHT22;14047;50.936;4.654;2022-10-13T01:58:35;14.90;99.90
26336;DHT22;14047;50.936;4.654;2022-10-13T02:01:20;14.90;99.90
26336;DHT22;14047;50.936;4.654;2022-10-13T02:06:30;14.90;99.90
26336;DHT22;14047;50.936;4.654;2022-10-13T02:11:50;14.90;99.90
26336;DHT22;14047;50.936;4.654;2022-10-13T02:14:31;14.80;99.90
26336;DHT22;14047;50.936;4.654;2022-10-13T02:17:00;14.80;99.90
26336;DHT22;14047;50.936;4.654;2022-10-13T02:19:27;14.90;99.90
26336;DHT22;14047;50.936;4.654;2022-10-13T02:21:55;14.90;99.90
26336;DHT22;14047;50.936;4.654;2022-10-13T02:24:22;14.80;99.90
26336;DHT22;14047;50.936;4.654;2022-10-13T02:26:47;14.80;99.90
26336;DHT22;14047;50.936;4.654;2022-10-13T02:29:15;14.80;99.90
26336;DHT22;14047;50.936;4.654;2022-10-13T02:31:42;14.90;99.90
26336;DHT22;14047;50.936;4.654;2022-10-13T02:34:08;14.80;99.90
26336;DHT22;14047;50.936;4.654;2022-10-13T02:36:35;14.80;99.90
26336;DHT22;14047;50.936;4.654;2022-10-13T02:39:03;14.70;99.90
26336;DHT22;14047;50.936;4.654;2022-10-13T02:41:29;14.70;99.90
26336;DHT22;14047;50.936;4.654;2022-10-13T02:43:55;14.70;99.90
26336;DHT22;14047;50.936;4.654;2022-10-13T02:46:21;14.70;99.90
26336;DHT22;14047;50.936;4.654;2022-10-13T02:48:47;14.70;99.90
26336;DHT22;14047;50.936;4.654;2022-10-13T02:51:12;14.70;99.90
26336;DHT22;14047;50.936;4.654;2022-10-13T02:53:38;14.70;99.90
26336;DHT22;14047;50.936;4.654;2022-10-13T02:56:04;14.60;99.90
26336;DHT22;14047;50.936;4.654;2022-10-13T02:58:29;14.60;99.90
26336;DHT22;14047;50.936;4.654;2022-10-13T03:01:07;14.60;99.90
26336;DHT22;14047;50.936;4.654;2022-10-13T03:03:33;14.60;99.90
26336;DHT22;14047;50.936;4.654;2022-10-13T03:05:59;14.60;99.90
26336;DHT22;14047;50.936;4.654;2022-10-13T03:08:25;14.60;99.90
26336;DHT22;14047;50.936;4.654;2022-10-13T03:10:51;14.60;99.90
26336;DHT22;14047;50.936;4.654;2022-10-13T03:13:17;14.60;99.90
26336;DHT22;14047;50.936;4.654;2022-10-13T03:15:42;14.60;99.90
26336;DHT22;14047;50.936;4.654;2022-10-13T03:18:08;14.60;99.90
26336;DHT22;14047;50.936;4.654;2022-10-13T03:20:33;14.60;99.90
26336;DHT22;14047;50.936;4.654;2022-10-13T03:22:59;14.60;99.90
26336;DHT22;14047;50.936;4.654;2022-10-13T03:25:25;14.60;99.90
26336;DHT22;14047;50.936;4.654;2022-10-13T03:27:50;14.60;99.90
26336;DHT22;14047;50.936;4.654;2022-10-13T03:30:16;14.60;99.90
26336;DHT22;14047;50.936;4.654;2022-10-13T03:32:42;14.70;99.90
26336;DHT22;14047;50.936;4.654;2022-10-13T03:35:07;14.70;99.90
26336;DHT22;14047;50.936;4.654;2022-10-13T03:37:33;14.70;99.90
26336;DHT22;14047;50.936;4.654;2022-10-13T03:39:59;14.70;99.90
26336;DHT22;14047;50.936;4.654;2022-10-13T03:42:24;14.70;99.90
26336;DHT22;14047;50.936;4.654;2022-10-13T03:44:50;14.70;99.90
26336;DHT22;14047;50.936;4.654;2022-10-13T03:47:15;14.70;99.90
26336;DHT22;14047;50.936;4.654;2022-10-13T03:49:41;14.70;99.90
26336;DHT22;14047;50.936;4.654;2022-10-13T03:52:07;14.70;99.90
26336;DHT22;14047;50.936;4.654;2022-10-13T03:54:33;14.70;99.90
26336;DHT22;14047;50.936;4.654;2022-10-13T03:56:58;14.70;99.90
26336;DHT22;14047;50.936;4.654;2022-10-13T03:59:24;14.90;99.90
26336;DHT22;14047;50.936;4.654;2022-10-13T04:01:50;14.80;99.90
26336;DHT22;14047;50.936;4.654;2022-10-13T04:04:15;14.70;99.90
26336;DHT22;14047;50.936;4.654;2022-10-13T04:06:41;14.70;99.90
26336;DHT22;14047;50.936;4.654;2022-10-13T04:09:06;14.60;99.90
26336;DHT22;14047;50.936;4.654;2022-10-13T04:11:32;14.70;99.90
26336;DHT22;14047;50.936;4.654;2022-10-13T04:13:58;14.70;99.90
26336;DHT22;14047;50.936;4.654;2022-10-13T04:16:26;14.50;99.90
26336;DHT22;14047;50.936;4.654;2022-10-13T04:18:57;14.50;99.90
26336;DHT22;14047;50.936;4.654;2022-10-13T04:21:27;14.60;99.90
26336;DHT22;14047;50.936;4.654;2022-10-13T04:23:54;14.60;99.90
26336;DHT22;14047;50.936;4.654;2022-10-13T04:26:22;14.60;99.90
26336;DHT22;14047;50.936;4.654;2022-10-13T04:28:49;14.60;99.90
26336;DHT22;14047;50.936;4.654;2022-10-13T04:31:15;14.60;99.90
26336;DHT22;14047;50.936;4.654;2022-10-13T04:33:41;14.60;99.90
26336;DHT22;14047;50.936;4.654;2022-10-13T04:36:10;14.50;99.90
26336;DHT22;14047;50.936;4.654;2022-10-13T04:38:36;14.50;99.90
26336;DHT22;14047;50.936;4.654;2022-10-13T04:41:06;14.40;99.90
26336;DHT22;14047;50.936;4.654;2022-10-13T04:43:32;14.50;99.90
26336;DHT22;14047;50.936;4.654;2022-10-13T04:46:02;14.40;99.90
26336;DHT22;14047;50.936;4.654;2022-10-13T04:48:28;14.50;99.90
26336;DHT22;14047;50.936;4.654;2022-10-13T04:51:01;14.50;99.90
26336;DHT22;14047;50.936;4.654;2022-10-13T04:53:28;14.40;99.90
26336;DHT22;14047;50.936;4.654;2022-10-13T04:55:55;14.30;99.90
26336;DHT22;14047;50.936;4.654;2022-10-13T04:58:21;14.40;99.90
26336;DHT22;14047;50.936;4.654;2022-10-13T05:00:47;14.40;99.90
26336;DHT22;14047;50.936;4.654;2022-10-13T05:03:13;14.40;99.90
26336;DHT22;14047;50.936;4.654;2022-10-13T05:05:39;14.50;99.90
26336;DHT22;14047;50.936;4.654;2022-10-13T05:08:05;14.50;99.90
26336;DHT22;14047;50.936;4.654;2022-10-13T05:10:30;14.50;99.90
26336;DHT22;14047;50.936;4.654;2022-10-13T05:12:56;14.50;99.90
26336;DHT22;14047;50.936;4.654;2022-10-13T05:15:22;14.50;99.90
26336;DHT22;14047;50.936;4.654;2022-10-13T05:17:47;14.50;99.90
26336;DHT22;14047;50.936;4.654;2022-10-13T05:20:13;14.50;99.90
26336;DHT22;14047;50.936;4.654;2022-10-13T05:22:42;14.50;99.90
26336;DHT22;14047;50.936;4.654;2022-10-13T05:25:08;14.20;99.90
26336;DHT22;14047;50.936;4.654;2022-10-13T05:27:33;14.10;99.90
26336;DHT22;14047;50.936;4.654;2022-10-13T05:29:59;14.20;99.90
26336;DHT22;14047;50.936;4.654;2022-10-13T05:32:25;14.20;99.90
26336;DHT22;14047;50.936;4.654;2022-10-13T05:34:50;14.30;99.90
26336;DHT22;14047;50.936;4.654;2022-10-13T05:37:16;14.40;99.90
26336;DHT22;14047;50.936;4.654;2022-10-13T05:39:42;14.40;99.90
26336;DHT22;14047;50.936;4.654;2022-10-13T05:42:09;14.40;99.90
26336;DHT22;14047;50.936;4.654;2022-10-13T05:44:35;14.40;99.90
26336;DHT22;14047;50.936;4.654;2022-10-13T05:47:02;14.40;99.90
26336;DHT22;14047;50.936;4.654;2022-10-13T05:49:28;14.30;99.90
26336;DHT22;14047;50.936;4.654;2022-10-13T05:51:57;14.40;99.90
26336;DHT22;14047;50.936;4.654;2022-10-13T05:54:25;14.40;99.90
26336;DHT22;14047;50.936;4.654;2022-10-13T05:57:07;14.50;99.90
26336;DHT22;14047;50.936;4.654;2022-10-13T05:59:39;14.50;99.90
26336;DHT22;14047;50.936;4.654;2022-10-13T06:02:08;14.60;99.90
26336;DHT22;14047;50.936;4.654;2022-10-13T06:04:48;14.30;99.90
26336;DHT22;14047;50.936;4.654;2022-10-13T06:07:14;14.40;99.90
26336;DHT22;14047;50.936;4.654;2022-10-13T06:09:41;14.40;99.90
26336;DHT22;14047;50.936;4.654;2022-10-13T06:12:08;14.40;99.90
26336;DHT22;14047;50.936;4.654;2022-10-13T06:14:33;14.50;99.90
26336;DHT22;14047;50.936;4.654;2022-10-13T06:16:59;14.60;99.90
26336;DHT22;14047;50.936;4.654;2022-10-13T06:19:25;14.60;99.90
26336;DHT22;14047;50.936;4.654;2022-10-13T06:21:50;14.60;99.90
26336;DHT22;14047;50.936;4.654;2022-10-13T06:24:16;14.60;99.90
26336;DHT22;14047;50.936;4.654;2022-10-13T06:26:42;14.60;99.90
26336;DHT22;14047;50.936;4.654;2022-10-13T06:29:08;14.70;99.90
26336;DHT22;14047;50.936;4.654;2022-10-13T06:31:33;14.80;99.90
26336;DHT22;14047;50.936;4.654;2022-10-13T06:33:59;14.80;99.90
26336;DHT22;14047;50.936;4.654;2022-10-13T06:36:25;14.90;99.90
26336;DHT22;14047;50.936;4.654;2022-10-13T06:38:51;14.90;99.90
26336;DHT22;14047;50.936;4.654;2022-10-13T06:41:16;15.00;99.90
26336;DHT22;14047;50.936;4.654;2022-10-13T06:43:42;15.00;99.90
26336;DHT22;14047;50.936;4.654;2022-10-13T06:46:09;15.00;99.90
26336;DHT22;14047;50.936;4.654;2022-10-13T06:48:35;15.10;99.90
26336;DHT22;14047;50.936;4.654;2022-10-13T06:51:05;15.10;99.90
26336;DHT22;14047;50.936;4.654;2022-10-13T06:53:32;15.10;99.90
26336;DHT22;14047;50.936;4.654;2022-10-13T06:55:58;15.20;99.90
26336;DHT22;14047;50.936;4.654;2022-10-13T06:58:24;15.20;99.90
26336;DHT22;14047;50.936;4.654;2022-10-13T07:00:50;15.30;99.90
26336;DHT22;14047;50.936;4.654;2022-10-13T07:03:16;15.40;99.90
26336;DHT22;14047;50.936;4.654;2022-10-13T07:05:42;15.40;99.90
26336;DHT22;14047;50.936;4.654;2022-10-13T07:08:08;15.50;99.90
26336;DHT22;14047;50.936;4.654;2022-10-13T07:10:36;15.50;99.90
26336;DHT22;14047;50.936;4.654;2022-10-13T07:13:01;15.50;99.90
26336;DHT22;14047;50.936;4.654;2022-10-13T07:15:27;15.40;99.90
26336;DHT22;14047;50.936;4.654;2022-10-13T07:17:53;15.50;99.90
26336;DHT22;14047;50.936;4.654;2022-10-13T07:20:23;15.40;99.90
26336;DHT22;14047;50.936;4.654;2022-10-13T07:22:49;15.40;99.90
26336;DHT22;14047;50.936;4.654;2022-10-13T07:25:16;15.40;99.90
26336;DHT22;14047;50.936;4.654;2022-10-13T07:27:42;15.40;99.90
26336;DHT22;14047;50.936;4.654;2022-10-13T07:30:09;15.40;99.90
26336;DHT22;14047;50.936;4.654;2022-10-13T07:32:35;15.60;99.90
26336;DHT22;14047;50.936;4.654;2022-10-13T07:35:01;15.60;99.90
26336;DHT22;14047;50.936;4.654;2022-10-13T07:37:28;15.70;99.90
26336;DHT22;14047;50.936;4.654;2022-10-13T07:39:53;15.80;99.90
26336;DHT22;14047;50.936;4.654;2022-10-13T07:42:19;15.90;99.90
26336;DHT22;14047;50.936;4.654;2022-10-13T07:44:44;15.90;99.90
26336;DHT22;14047;50.936;4.654;2022-10-13T07:47:10;16.10;99.90
26336;DHT22;14047;50.936;4.654;2022-10-13T07:49:36;16.10;99.90
26336;DHT22;14047;50.936;4.654;2022-10-13T07:52:02;16.10;99.90
26336;DHT22;14047;50.936;4.654;2022-10-13T07:54:27;16.00;99.90
26336;DHT22;14047;50.936;4.654;2022-10-13T07:56:54;15.90;99.90
26336;DHT22;14047;50.936;4.654;2022-10-13T07:59:20;16.00;99.90
26336;DHT22;14047;50.936;4.654;2022-10-13T08:01:46;16.10;99.90
26336;DHT22;14047;50.936;4.654;2022-10-13T08:04:12;16.20;99.90
26336;DHT22;14047;50.936;4.654;2022-10-13T08:06:37;16.20;99.90
26336;DHT22;14047;50.936;4.654;2022-10-13T08:09:04;16.30;99.90
26336;DHT22;14047;50.936;4.654;2022-10-13T08:11:30;16.30;99.90
26336;DHT22;14047;50.936;4.654;2022-10-13T08:13:57;16.20;99.90
26336;DHT22;14047;50.936;4.654;2022-10-13T08:16:27;16.30;99.90
26336;DHT22;14047;50.936;4.654;2022-10-13T08:18:52;16.30;99.90
26336;DHT22;14047;50.936;4.654;2022-10-13T08:21:19;16.40;99.90
26336;DHT22;14047;50.936;4.654;2022-10-13T08:23:46;16.60;99.90
26336;DHT22;14047;50.936;4.654;2022-10-13T08:26:19;16.60;99.90
26336;DHT22;14047;50.936;4.654;2022-10-13T08:28:45;16.60;99.90
26336;DHT22;14047;50.936;4.654;2022-10-13T08:31:11;16.70;99.90
26336;DHT22;14047;50.936;4.654;2022-10-13T08:33:37;16.80;99.90
26336;DHT22;14047;50.936;4.654;2022-10-13T08:36:02;16.70;99.90
26336;DHT22;14047;50.936;4.654;2022-10-13T08:38:28;16.70;99.90
26336;DHT22;14047;50.936;4.654;2022-10-13T08:40:53;16.70;99.90
26336;DHT22;14047;50.936;4.654;2022-10-13T08:43:21;16.70;99.90
26336;DHT22;14047;50.936;4.654;2022-10-13T08:45:54;16.70;99.90
26336;DHT22;14047;50.936;4.654;2022-10-13T08:48:26;16.70;99.90
26336;DHT22;14047;50.936;4.654;2022-10-13T08:50:55;16.70;99.90
26336;DHT22;14047;50.936;4.654;2022-10-13T08:53:40;16.80;99.90
26336;DHT22;14047;50.936;4.654;2022-10-13T08:58:37;16.80;99.90
26336;DHT22;14047;50.936;4.654;2022-10-13T09:01:18;16.80;99.90
26336;DHT22;14047;50.936;4.654;2022-10-13T09:06:23;16.90;99.90
26336;DHT22;14047;50.936;4.654;2022-10-13T09:08:59;17.10;99.90
26336;DHT22;14047;50.936;4.654;2022-10-13T09:11:28;17.30;99.90
26336;DHT22;14047;50.936;4.654;2022-10-13T09:13:59;17.40;99.90
26336;DHT22;14047;50.936;4.654;2022-10-13T09:16:34;17.40;99.90
26336;DHT22;14047;50.936;4.654;2022-10-13T09:21:52;17.60;99.90
26336;DHT22;14047;50.936;4.654;2022-10-13T09:24:20;17.60;99.90
26336;DHT22;14047;50.936;4.654;2022-10-13T09:26:48;17.70;99.90
26336;DHT22;14047;50.936;4.654;2022-10-13T09:29:23;17.70;99.90
26336;DHT22;14047;50.936;4.654;2022-10-13T09:31:50;17.80;99.90
26336;DHT22;14047;50.936;4.654;2022-10-13T09:36:58;17.70;99.90
26336;DHT22;14047;50.936;4.654;2022-10-13T09:39:24;17.60;99.90
26336;DHT22;14047;50.936;4.654;2022-10-13T09:41:50;17.50;99.90
26336;DHT22;14047;50.936;4.654;2022-10-13T09:44:34;17.50;99.90
26336;DHT22;14047;50.936;4.654;2022-10-13T09:47:01;17.50;99.90
26336;DHT22;14047;50.936;4.654;2022-10-13T09:49:44;17.50;99.90
26336;DHT22;14047;50.936;4.654;2022-10-13T09:54:45;17.10;99.90
26336;DHT22;14047;50.936;4.654;2022-10-13T09:57:16;17.10;99.90
26336;DHT22;14047;50.936;4.654;2022-10-13T10:00:05;17.20;99.90
26336;DHT22;14047;50.936;4.654;2022-10-13T10:05:04;17.20;99.90
26336;DHT22;14047;50.936;4.654;2022-10-13T10:07:31;17.20;99.90
26336;DHT22;14047;50.936;4.654;2022-10-13T10:10:02;17.30;99.90
26336;DHT22;14047;50.936;4.654;2022-10-13T10:12:31;17.30;99.90
26336;DHT22;14047;50.936;4.654;2022-10-13T10:15:01;17.40;99.90
26336;DHT22;14047;50.936;4.654;2022-10-13T10:17:42;17.50;99.90
26336;DHT22;14047;50.936;4.654;2022-10-13T10:20:36;17.50;99.90
26336;DHT22;14047;50.936;4.654;2022-10-13T10:23:32;17.70;99.90
26336;DHT22;14047;50.936;4.654;2022-10-13T10:26:10;17.90;99.90
26336;DHT22;14047;50.936;4.654;2022-10-13T10:31:54;18.30;99.90
26336;DHT22;14047;50.936;4.654;2022-10-13T10:34:52;18.50;99.90
26336;DHT22;14047;50.936;4.654;2022-10-13T10:37:37;18.70;99.90
26336;DHT22;14047;50.936;4.654;2022-10-13T10:45:49;18.70;99.90
26336;DHT22;14047;50.936;4.654;2022-10-13T10:48:22;18.70;99.90
26336;DHT22;14047;50.936;4.654;2022-10-13T10:50:50;18.50;99.90
26336;DHT22;14047;50.936;4.654;2022-10-13T10:56:36;18.50;99.90
26336;DHT22;14047;50.936;4.654;2022-10-13T11:02:11;17.70;99.90
26336;DHT22;14047;50.936;4.654;2022-10-13T11:04:43;17.10;99.90
26336;DHT22;14047;50.936;4.654;2022-10-13T11:07:58;16.60;99.90
26336;DHT22;14047;50.936;4.654;2022-10-13T11:09:59;16.60;99.90
26336;DHT22;14047;50.936;4.654;2022-10-13T11:12:45;16.70;99.90
26336;DHT22;14047;50.936;4.654;2022-10-13T11:15:41;16.60;99.90
26336;DHT22;14047;50.936;4.654;2022-10-13T11:21:10;16.30;99.90
26336;DHT22;14047;50.936;4.654;2022-10-13T11:23:43;16.10;99.90
26336;DHT22;14047;50.936;4.654;2022-10-13T11:28:50;16.00;99.90
26336;DHT22;14047;50.936;4.654;2022-10-13T11:31:24;16.10;99.90
26336;DHT22;14047;50.936;4.654;2022-10-13T11:33:54;15.90;99.90
26336;DHT22;14047;50.936;4.654;2022-10-13T11:36:30;15.60;99.90
26336;DHT22;14047;50.936;4.654;2022-10-13T11:44:40;15.40;99.90
26336;DHT22;14047;50.936;4.654;2022-10-13T11:53:26;15.40;99.90
26336;DHT22;14047;50.936;4.654;2022-10-13T11:55:57;15.50;99.90
26336;DHT22;14047;50.936;4.654;2022-10-13T11:58:34;15.50;99.90
26336;DHT22;14047;50.936;4.654;2022-10-13T12:01:11;15.50;99.90
26336;DHT22;14047;50.936;4.654;2022-10-13T12:03:42;15.50;99.90
26336;DHT22;14047;50.936;4.654;2022-10-13T12:08:44;15.30;99.90
26336;DHT22;14047;50.936;4.654;2022-10-13T12:11:25;15.30;99.90
26336;DHT22;14047;50.936;4.654;2022-10-13T12:13:52;15.40;99.90
26336;DHT22;14047;50.936;4.654;2022-10-13T12:16:18;15.20;99.90
26336;DHT22;14047;50.936;4.654;2022-10-13T12:18:44;15.30;99.90
26336;DHT22;14047;50.936;4.654;2022-10-13T12:21:16;15.40;99.90
26336;DHT22;14047;50.936;4.654;2022-10-13T12:23:44;15.50;99.90
26336;DHT22;14047;50.936;4.654;2022-10-13T12:26:21;15.70;99.90
26336;DHT22;14047;50.936;4.654;2022-10-13T12:29:00;15.90;99.90
26336;DHT22;14047;50.936;4.654;2022-10-13T12:31:29;16.20;99.90
26336;DHT22;14047;50.936;4.654;2022-10-13T12:33:58;16.40;99.90
26336;DHT22;14047;50.936;4.654;2022-10-13T12:36:27;16.40;99.90
26336;DHT22;14047;50.936;4.654;2022-10-13T12:38:58;16.10;99.90
26336;DHT22;14047;50.936;4.654;2022-10-13T12:41:27;16.00;99.90
26336;DHT22;14047;50.936;4.654;2022-10-13T12:43:54;16.00;99.90
26336;DHT22;14047;50.936;4.654;2022-10-13T12:49:21;15.80;99.90
26336;DHT22;14047;50.936;4.654;2022-10-13T12:51:50;15.60;99.90
26336;DHT22;14047;50.936;4.654;2022-10-13T12:54:25;15.50;99.90
26336;DHT22;14047;50.936;4.654;2022-10-13T12:56:55;15.40;99.90
26336;DHT22;14047;50.936;4.654;2022-10-13T12:59:22;15.40;99.90
26336;DHT22;14047;50.936;4.654;2022-10-13T13:01:55;15.40;99.90
26336;DHT22;14047;50.936;4.654;2022-10-13T13:06:57;15.60;99.90
26336;DHT22;14047;50.936;4.654;2022-10-13T13:09:24;15.60;99.90
26336;DHT22;14047;50.936;4.654;2022-10-13T13:12:26;15.60;99.90
26336;DHT22;14047;50.936;4.654;2022-10-13T13:14:51;15.80;99.90
26336;DHT22;14047;50.936;4.654;2022-10-13T13:19:50;16.00;99.90
26336;DHT22;14047;50.936;4.654;2022-10-13T13:22:16;15.90;99.90
26336;DHT22;14047;50.936;4.654;2022-10-13T13:24:42;15.90;99.90
26336;DHT22;14047;50.936;4.654;2022-10-13T13:27:26;16.00;99.90
26336;DHT22;14047;50.936;4.654;2022-10-13T13:29:54;16.10;99.90
26336;DHT22;14047;50.936;4.654;2022-10-13T13:32:21;16.20;99.90
26336;DHT22;14047;50.936;4.654;2022-10-13T13:34:48;16.20;99.90
26336;DHT22;14047;50.936;4.654;2022-10-13T13:39:52;16.40;99.90
26336;DHT22;14047;50.936;4.654;2022-10-13T13:42:17;16.40;99.90
26336;DHT22;14047;50.936;4.654;2022-10-13T13:44:43;16.40;99.90
26336;DHT22;14047;50.936;4.654;2022-10-13T13:47:20;16.30;99.90
26336;DHT22;14047;50.936;4.654;2022-10-13T13:49:47;16.10;99.90
26336;DHT22;14047;50.936;4.654;2022-10-13T13:52:13;15.80;99.90
26336;DHT22;14047;50.936;4.654;2022-10-13T13:54:39;15.50;99.90
26336;DHT22;14047;50.936;4.654;2022-10-13T13:57:05;15.40;99.90
26336;DHT22;14047;50.936;4.654;2022-10-13T13:59:31;15.30;99.90
26336;DHT22;14047;50.936;4.654;2022-10-13T14:01:56;15.30;99.90
26336;DHT22;14047;50.936;4.654;2022-10-13T14:04:22;15.30;99.90
26336;DHT22;14047;50.936;4.654;2022-10-13T14:06:48;15.30;99.90
26336;DHT22;14047;50.936;4.654;2022-10-13T14:09:13;15.20;99.90
26336;DHT22;14047;50.936;4.654;2022-10-13T14:11:39;15.20;99.90
26336;DHT22;14047;50.936;4.654;2022-10-13T14:14:04;15.20;99.90
26336;DHT22;14047;50.936;4.654;2022-10-13T14:16:30;15.20;99.90
26336;DHT22;14047;50.936;4.654;2022-10-13T14:18:56;15.20;99.90
26336;DHT22;14047;50.936;4.654;2022-10-13T14:21:22;15.20;99.90
26336;DHT22;14047;50.936;4.654;2022-10-13T14:23:47;15.20;99.90
26336;DHT22;14047;50.936;4.654;2022-10-13T14:26:13;15.20;99.90
26336;DHT22;14047;50.936;4.654;2022-10-13T14:28:40;15.20;99.90
26336;DHT22;14047;50.936;4.654;2022-10-13T14:31:06;15.20;99.90
26336;DHT22;14047;50.936;4.654;2022-10-13T14:33:32;15.20;99.90
26336;DHT22;14047;50.936;4.654;2022-10-13T14:35:59;15.10;99.90
26336;DHT22;14047;50.936;4.654;2022-10-13T14:38:25;15.10;99.90
26336;DHT22;14047;50.936;4.654;2022-10-13T14:40:51;15.10;99.90
26336;DHT22;14047;50.936;4.654;2022-10-13T14:43:17;15.20;99.90
26336;DHT22;14047;50.936;4.654;2022-10-13T14:45:42;15.20;99.90
26336;DHT22;14047;50.936;4.654;2022-10-13T14:48:08;15.10;99.90
26336;DHT22;14047;50.936;4.654;2022-10-13T14:50:36;15.10;99.90
26336;DHT22;14047;50.936;4.654;2022-10-13T14:53:02;15.20;99.90
26336;DHT22;14047;50.936;4.654;2022-10-13T14:55:28;15.20;99.90
26336;DHT22;14047;50.936;4.654;2022-10-13T14:57:55;15.30;99.90
26336;DHT22;14047;50.936;4.654;2022-10-13T15:00:20;15.40;99.90
26336;DHT22;14047;50.936;4.654;2022-10-13T15:02:46;15.30;99.90
26336;DHT22;14047;50.936;4.654;2022-10-13T15:05:12;15.40;99.90
26336;DHT22;14047;50.936;4.654;2022-10-13T15:07:37;15.40;99.90
26336;DHT22;14047;50.936;4.654;2022-10-13T15:10:03;15.60;99.90
26336;DHT22;14047;50.936;4.654;2022-10-13T15:12:29;15.50;99.90
26336;DHT22;14047;50.936;4.654;2022-10-13T15:14:55;15.40;99.90
26336;DHT22;14047;50.936;4.654;2022-10-13T15:17:21;15.50;99.90
26336;DHT22;14047;50.936;4.654;2022-10-13T15:19:47;15.50;99.90
26336;DHT22;14047;50.936;4.654;2022-10-13T15:22:12;15.40;99.90
26336;DHT22;14047;50.936;4.654;2022-10-13T15:24:38;15.30;99.90
26336;DHT22;14047;50.936;4.654;2022-10-13T15:27:04;15.30;99.90
26336;DHT22;14047;50.936;4.654;2022-10-13T15:29:29;15.40;99.90
26336;DHT22;14047;50.936;4.654;2022-10-13T15:32:09;15.50;99.90
26336;DHT22;14047;50.936;4.654;2022-10-13T15:34:40;15.80;99.90
26336;DHT22;14047;50.936;4.654;2022-10-13T15:37:06;15.80;99.90
26336;DHT22;14047;50.936;4.654;2022-10-13T15:39:31;16.10;99.90
26336;DHT22;14047;50.936;4.654;2022-10-13T15:41:57;16.30;99.90
26336;DHT22;14047;50.936;4.654;2022-10-13T15:44:26;16.50;99.90
26336;DHT22;14047;50.936;4.654;2022-10-13T15:46:52;16.60;99.90
26336;DHT22;14047;50.936;4.654;2022-10-13T15:49:24;16.70;99.90
26336;DHT22;14047;50.936;4.654;2022-10-13T15:51:50;16.60;99.90
26336;DHT22;14047;50.936;4.654;2022-10-13T15:54:17;16.50;99.90
26336;DHT22;14047;50.936;4.654;2022-10-13T15:56:43;16.30;99.90
26336;DHT22;14047;50.936;4.654;2022-10-13T15:59:09;16.10;99.90
26336;DHT22;14047;50.936;4.654;2022-10-13T16:01:35;16.00;99.90
26336;DHT22;14047;50.936;4.654;2022-10-13T16:04:01;15.90;99.90
26336;DHT22;14047;50.936;4.654;2022-10-13T16:06:26;16.10;99.90
26336;DHT22;14047;50.936;4.654;2022-10-13T16:08:52;16.20;99.90
26336;DHT22;14047;50.936;4.654;2022-10-13T16:11:20;16.20;99.90
26336;DHT22;14047;50.936;4.654;2022-10-13T16:13:47;16.30;99.90
26336;DHT22;14047;50.936;4.654;2022-10-13T16:16:14;16.40;99.90
26336;DHT22;14047;50.936;4.654;2022-10-13T16:18:40;16.40;99.90
26336;DHT22;14047;50.936;4.654;2022-10-13T16:21:08;16.40;99.90
26336;DHT22;14047;50.936;4.654;2022-10-13T16:23:33;16.10;99.90
26336;DHT22;14047;50.936;4.654;2022-10-13T16:26:01;15.80;99.90
26336;DHT22;14047;50.936;4.654;2022-10-13T16:28:26;15.70;99.90
26336;DHT22;14047;50.936;4.654;2022-10-13T16:30:52;15.80;99.90
26336;DHT22;14047;50.936;4.654;2022-10-13T16:33:18;15.80;99.90
26336;DHT22;14047;50.936;4.654;2022-10-13T16:35:43;15.90;99.90
26336;DHT22;14047;50.936;4.654;2022-10-13T16:38:09;15.80;99.90
26336;DHT22;14047;50.936;4.654;2022-10-13T16:40:37;15.80;99.90
26336;DHT22;14047;50.936;4.654;2022-10-13T16:43:06;15.70;99.90
26336;DHT22;14047;50.936;4.654;2022-10-13T16:45:32;15.50;99.90
26336;DHT22;14047;50.936;4.654;2022-10-13T16:47:57;15.60;99.90
26336;DHT22;14047;50.936;4.654;2022-10-13T16:50:23;15.50;99.90
26336;DHT22;14047;50.936;4.654;2022-10-13T16:52:49;15.50;99.90
26336;DHT22;14047;50.936;4.654;2022-10-13T16:55:14;15.50;99.90
26336;DHT22;14047;50.936;4.654;2022-10-13T16:57:40;15.20;99.90
26336;DHT22;14047;50.936;4.654;2022-10-13T17:00:06;15.10;99.90
26336;DHT22;14047;50.936;4.654;2022-10-13T17:02:34;15.20;99.90
26336;DHT22;14047;50.936;4.654;2022-10-13T17:04:59;15.20;99.90